createdAt,value
2022-11-30T00:01:55.177Z,101007.92
2022-11-30T00:04:23.062Z,101009.66
2022-11-30T00:06:50.762Z,101010.02
2022-11-30T00:09:18.889Z,101009.83
2022-11-30T00:11:46.624Z,101014.67
2022-11-30T00:14:14.271Z,101011.23
2022-11-30T00:16:42.258Z,101010.90
2022-11-30T00:19:09.923Z,101010.20
2022-11-30T00:21:37.707Z,101013.84
2022-11-30T00:24:06.094Z,101017.11
2022-11-30T00:26:33.958Z,101018.85
2022-11-30T00:29:02.022Z,101019.02
2022-11-30T00:31:30.330Z,101020.75
2022-11-30T00:33:58.124Z,101022.30
2022-11-30T00:36:25.969Z,101017.48
2022-11-30T00:38:54.481Z,101016.78
2022-11-30T00:41:22.401Z,101021.63
2022-11-30T00:43:50.315Z,101026.98
2022-11-30T00:46:18.376Z,101030.08
2022-11-30T00:48:46.234Z,101027.85
2022-11-30T00:51:14.835Z,101030.27
2022-11-30T00:53:42.819Z,101027.86
2022-11-30T00:56:10.986Z,101030.27
2022-11-30T00:58:39.314Z,101031.66
2022-11-30T01:01:43.101Z,101025.63
2022-11-30T01:04:11.608Z,101028.05
2022-11-30T01:06:40.277Z,101034.77
2022-11-30T01:09:10.337Z,101030.64
2022-11-30T01:11:38.707Z,101031.67
2022-11-30T01:14:06.582Z,101032.53
2022-11-30T01:16:34.653Z,101032.55
2022-11-30T01:19:04.038Z,101033.05
2022-11-30T01:21:33.608Z,101033.58
2022-11-30T01:24:02.362Z,101035.81
2022-11-30T01:26:30.546Z,101032.71
2022-11-30T01:28:58.211Z,101038.75
2022-11-30T01:31:26.478Z,101041.33
2022-11-30T01:33:55.492Z,101044.09
2022-11-30T01:36:26.753Z,101042.19
2022-11-30T01:38:58.641Z,101043.58
2022-11-30T01:41:29.498Z,101044.44
2022-11-30T01:44:20.103Z,101046.51
2022-11-30T01:47:05.463Z,101050.46
2022-11-30T01:49:38.293Z,101048.91
2022-11-30T01:52:17.090Z,101048.23
2022-11-30T01:54:51.636Z,101053.39
2022-11-30T01:57:29.732Z,101058.73
2022-11-30T02:00:01.759Z,101059.77
2022-11-30T02:02:45.058Z,101059.41
2022-11-30T02:05:13.226Z,101059.08
2022-11-30T02:07:42.155Z,101058.54
2022-11-30T02:10:16.033Z,101056.83
2022-11-30T02:13:05.583Z,101058.54
2022-11-30T02:15:55.903Z,101057.85
2022-11-30T02:19:08.291Z,101056.13
2022-11-30T02:21:51.730Z,101058.36
2022-11-30T02:24:26.243Z,101055.60
2022-11-30T02:27:10.617Z,101047.84
2022-11-30T02:29:44.003Z,101058.69
2022-11-30T02:32:27.761Z,101061.61
2022-11-30T02:34:58.546Z,101062.83
2022-11-30T02:37:29.691Z,101058.52
2022-11-30T02:39:58.316Z,101063.70
2022-11-30T02:42:26.026Z,101067.14
2022-11-30T02:44:55.138Z,101066.28
2022-11-30T02:47:46.861Z,101065.44
2022-11-30T02:50:43.817Z,101066.64
2022-11-30T02:53:11.751Z,101071.12
2022-11-30T02:55:40.291Z,101075.08
2022-11-30T02:58:08.485Z,101074.39
2022-11-30T03:00:36.381Z,101071.98
2022-11-30T03:03:04.328Z,101076.29
2022-11-30T03:05:32.660Z,101073.35
2022-11-30T03:08:00.689Z,101076.64
2022-11-30T03:10:29.793Z,101081.13
2022-11-30T03:12:58.910Z,101084.74
2022-11-30T03:15:28.766Z,101086.48
2022-11-30T03:17:57.026Z,101083.20
2022-11-30T03:20:24.807Z,101087.33
2022-11-30T03:22:52.744Z,101090.08
2022-11-30T03:25:20.814Z,101095.59
2022-11-30T03:27:48.749Z,101098.87
2022-11-30T03:30:17.345Z,101105.41
2022-11-30T03:32:45.015Z,101105.23
2022-11-30T03:35:14.626Z,101110.07
2022-11-30T03:37:42.594Z,101111.79
2022-11-30T03:40:11.467Z,101113.69
2022-11-30T03:42:39.592Z,101111.80
2022-11-30T03:45:08.670Z,101115.59
2022-11-30T03:47:38.105Z,101120.25
2022-11-30T03:50:06.516Z,101125.77
2022-11-30T03:52:35.949Z,101124.73
2022-11-30T03:55:06.138Z,101125.44
2022-11-30T03:57:34.073Z,101124.23
2022-11-30T04:00:01.971Z,101129.39
2022-11-30T04:02:44.516Z,101138.89
2022-11-30T04:05:13.384Z,101136.49
2022-11-30T04:07:41.368Z,101140.80
2022-11-30T04:10:09.892Z,101142.36
2022-11-30T04:12:37.843Z,101144.77
2022-11-30T04:15:06.250Z,101143.36
2022-11-30T04:17:33.947Z,101143.37
2022-11-30T04:20:02.441Z,101146.64
2022-11-30T04:22:33.857Z,101143.19
2022-11-30T04:25:01.585Z,101145.77
2022-11-30T04:27:29.482Z,101142.31
2022-11-30T04:29:58.401Z,101145.93
2022-11-30T04:32:26.056Z,101144.20
2022-11-30T04:34:54.010Z,101146.45
2022-11-30T04:37:22.250Z,101145.42
2022-11-30T04:39:49.999Z,101146.27
2022-11-30T04:42:17.774Z,101143.19
2022-11-30T04:44:45.643Z,101146.98
2022-11-30T04:47:13.635Z,101147.68
2022-11-30T04:49:41.536Z,101148.56
2022-11-30T04:52:09.401Z,101145.46
2022-11-30T04:54:37.156Z,101145.30
2022-11-30T04:57:06.466Z,101148.41
2022-11-30T04:59:34.155Z,101149.79
2022-11-30T05:02:01.934Z,101151.17
2022-11-30T05:04:30.017Z,101150.84
2022-11-30T05:06:57.937Z,101155.31
2022-11-30T05:09:25.678Z,101150.83
2022-11-30T05:11:53.710Z,101150.84
2022-11-30T05:14:21.431Z,101151.20
2022-11-30T05:16:50.042Z,101153.77
2022-11-30T05:19:19.433Z,101151.00
2022-11-30T05:21:47.187Z,101150.66
2022-11-30T05:24:14.895Z,101156.17
2022-11-30T05:26:42.731Z,101153.42
2022-11-30T05:29:10.626Z,101159.63
2022-11-30T05:31:38.813Z,101160.48
2022-11-30T05:34:06.980Z,101164.96
2022-11-30T05:36:34.926Z,101163.58
2022-11-30T05:39:02.699Z,101170.98
2022-11-30T05:41:30.714Z,101177.22
2022-11-30T05:43:59.091Z,101175.65
2022-11-30T05:46:26.839Z,101173.58
2022-11-30T05:48:55.282Z,101172.91
2022-11-30T05:51:23.630Z,101173.95
2022-11-30T05:53:51.444Z,101169.81
2022-11-30T05:56:21.549Z,101173.27
2022-11-30T05:58:49.574Z,101168.44
2022-11-30T06:01:23.698Z,101174.82
2022-11-30T06:03:52.374Z,101180.00
2022-11-30T06:06:20.966Z,101181.21
2022-11-30T06:08:50.489Z,101186.73
2022-11-30T06:11:18.659Z,101182.24
2022-11-30T06:13:46.395Z,101185.52
2022-11-30T06:16:14.336Z,101182.58
2022-11-30T06:18:42.448Z,101185.35
2022-11-30T06:21:11.527Z,101185.69
2022-11-30T06:23:39.541Z,101182.77
2022-11-30T06:26:10.483Z,101187.77
2022-11-30T06:28:42.094Z,101191.73
2022-11-30T06:31:13.537Z,101200.01
2022-11-30T06:33:43.404Z,101197.77
2022-11-30T06:36:11.137Z,101202.44
2022-11-30T06:38:39.174Z,101206.75
2022-11-30T06:41:09.074Z,101211.39
2022-11-30T06:43:38.536Z,101213.11
2022-11-30T06:46:07.686Z,101212.95
2022-11-30T06:48:36.013Z,101211.22
2022-11-30T06:51:09.016Z,101211.75
2022-11-30T06:53:37.111Z,101215.89
2022-11-30T06:56:10.507Z,101224.01
2022-11-30T06:58:39.893Z,101220.20
2022-11-30T07:01:11.011Z,101221.59
2022-11-30T07:03:40.117Z,101222.46
2022-11-30T07:06:10.428Z,101222.79
2022-11-30T07:08:39.195Z,101227.46
2022-11-30T07:11:08.640Z,101225.38
2022-11-30T07:13:37.264Z,101224.70
2022-11-30T07:16:06.736Z,101224.88
2022-11-30T07:18:35.497Z,101223.66
2022-11-30T07:21:04.967Z,101225.55
2022-11-30T07:24:09.982Z,101227.98
2022-11-30T07:26:37.881Z,101233.15
2022-11-30T07:29:06.162Z,101232.29
2022-11-30T07:31:39.215Z,101234.52
2022-11-30T07:34:10.160Z,101236.23
2022-11-30T07:36:37.948Z,101235.91
2022-11-30T07:39:06.881Z,101244.54
2022-11-30T07:41:34.796Z,101251.77
2022-11-30T07:44:08.274Z,101250.92
2022-11-30T07:49:35.109Z,101258.17
2022-11-30T07:52:04.615Z,101254.05
2022-11-30T07:54:32.409Z,101253.19
2022-11-30T07:57:01.003Z,101253.20
2022-11-30T07:59:28.835Z,101255.77
2022-11-30T08:01:56.766Z,101257.16
2022-11-30T08:04:25.090Z,101259.74
2022-11-30T08:06:54.742Z,101259.23
2022-11-30T08:09:34.629Z,101255.44
2022-11-30T08:12:05.850Z,101256.13
2022-11-30T08:15:18.288Z,101251.30
2022-11-30T08:17:36.678Z,101252.52
2022-11-30T08:20:06.438Z,101256.47
2022-11-30T08:22:35.434Z,101258.37
2022-11-30T08:25:06.721Z,101257.52
2022-11-30T08:27:34.607Z,101262.00
2022-11-30T08:30:02.823Z,101258.55
2022-11-30T08:32:31.485Z,101256.83
2022-11-30T08:34:59.356Z,101255.09
2022-11-30T08:37:28.119Z,101239.55
2022-11-30T08:39:56.823Z,101253.02
2022-11-30T08:42:25.215Z,101253.03
2022-11-30T08:44:53.008Z,101252.50
2022-11-30T08:47:22.965Z,101253.89
2022-11-30T08:49:51.001Z,101259.05
2022-11-30T08:52:22.019Z,101259.75
2022-11-30T08:54:50.945Z,101260.77
2022-11-30T08:57:27.072Z,101262.85
2022-11-30T08:59:57.350Z,101268.54
2022-11-30T09:02:26.747Z,101270.27
2022-11-30T09:04:54.994Z,101271.48
2022-11-30T09:07:23.851Z,101268.89
2022-11-30T09:09:52.220Z,101272.00
2022-11-30T09:13:11.122Z,101270.46
2022-11-30T09:16:10.180Z,101269.42
2022-11-30T09:18:39.977Z,101270.27
2022-11-30T09:21:10.895Z,101266.14
2022-11-30T09:23:40.013Z,101271.33
2022-11-30T09:26:26.555Z,101271.50
2022-11-30T09:29:00.226Z,101273.05
2022-11-30T09:31:30.267Z,101274.61
2022-11-30T09:34:07.029Z,101275.64
2022-11-30T09:36:37.453Z,101279.09
2022-11-30T09:39:06.589Z,101275.98
2022-11-30T09:41:34.470Z,101271.66
2022-11-30T09:44:21.414Z,101276.14
2022-11-30T09:47:14.326Z,101273.55
2022-11-30T09:49:47.707Z,101277.52
2022-11-30T09:52:34.048Z,101280.12
2022-11-30T09:55:08.195Z,101281.33
2022-11-30T09:57:47.131Z,101285.30
2022-11-30T10:00:22.739Z,101283.91
2022-11-30T10:02:52.998Z,101286.84
2022-11-30T10:05:29.945Z,101289.08
2022-11-30T10:08:22.393Z,101289.42
2022-11-30T10:11:11.714Z,101290.97
2022-11-30T10:13:51.116Z,101286.98
2022-11-30T10:16:22.852Z,101279.56
2022-11-30T10:19:09.569Z,101278.20
2022-11-30T10:21:45.938Z,101279.73
2022-11-30T10:24:35.939Z,101280.77
2022-11-30T10:27:17.517Z,101275.75
2022-11-30T10:29:45.496Z,101278.68
2022-11-30T10:32:19.876Z,101277.47
2022-11-30T10:35:04.330Z,101278.17
2022-11-30T10:37:37.231Z,101275.56
2022-11-30T10:40:27.101Z,101269.02
2022-11-30T10:43:25.758Z,101267.13
2022-11-30T10:45:53.911Z,101263.31
2022-11-30T10:48:31.605Z,101268.50
2022-11-30T10:51:03.881Z,101268.67
2022-11-30T10:53:33.075Z,101270.04
2022-11-30T10:56:11.208Z,101275.58
2022-11-30T10:58:53.087Z,101275.38
2022-11-30T11:01:39.454Z,101275.52
2022-11-30T11:04:20.896Z,101275.85
2022-11-30T11:07:09.966Z,101281.36
2022-11-30T11:10:07.872Z,101279.11
2022-11-30T11:12:38.734Z,101278.06
2022-11-30T11:15:19.031Z,101279.25
2022-11-30T11:17:49.521Z,101279.27
2022-11-30T11:20:32.739Z,101280.15
2022-11-30T11:23:01.050Z,101279.31
2022-11-30T11:25:34.328Z,101277.42
2022-11-30T11:28:19.368Z,101276.91
2022-11-30T11:30:48.318Z,101276.23
2022-11-30T11:33:24.845Z,101274.33
2022-11-30T11:36:14.769Z,101272.44
2022-11-30T11:38:51.472Z,101272.09
2022-11-30T11:41:31.674Z,101272.95
2022-11-30T11:44:11.939Z,101276.05
2022-11-30T11:46:53.894Z,101280.39
2022-11-30T11:49:24.958Z,101276.95
2022-11-30T11:52:14.444Z,101270.70
2022-11-30T11:55:00.021Z,101274.85
2022-11-30T11:57:38.489Z,101273.30
2022-11-30T12:00:21.732Z,101274.36
2022-11-30T12:03:19.334Z,101274.02
2022-11-30T12:06:17.845Z,101269.05
2022-11-30T12:09:00.296Z,101279.77
2022-11-30T12:11:48.015Z,101277.01
2022-11-30T12:14:18.331Z,101284.25
2022-11-30T12:17:16.954Z,101285.46
2022-11-30T12:20:16.535Z,101282.69
2022-11-30T12:23:10.484Z,101284.42
2022-11-30T12:26:23.775Z,101287.52
2022-11-30T12:30:06.407Z,101284.42
2022-11-30T12:32:54.133Z,101287.02
2022-11-30T12:35:42.581Z,101286.84
2022-11-30T12:38:35.382Z,101288.73
2022-11-30T12:41:09.212Z,101291.83
2022-11-30T12:43:50.746Z,101289.05
2022-11-30T12:46:34.868Z,101292.87
2022-11-30T12:49:31.089Z,101293.91
2022-11-30T13:01:06.358Z,101295.13
2022-11-30T13:03:45.224Z,101288.56
2022-11-30T13:06:21.983Z,101290.80
2022-11-30T13:09:18.714Z,101291.14
2022-11-30T13:20:26.312Z,101290.63
2022-11-30T13:23:11.903Z,101286.31
2022-11-30T14:07:11.488Z,101297.39
2022-11-30T14:15:48.354Z,101308.11
2022-11-30T14:35:00.458Z,101303.95
2022-11-30T14:41:53.159Z,101308.62
2022-11-30T14:45:59.023Z,101307.25
2022-11-30T15:08:26.946Z,101320.53
2022-11-30T15:11:21.881Z,101317.26
2022-11-30T15:33:01.864Z,101320.86
2022-11-30T15:35:49.929Z,101320.86
2022-11-30T15:38:26.252Z,101327.61
2022-11-30T15:41:25.170Z,101327.09
2022-11-30T15:43:56.560Z,101321.40
2022-11-30T15:46:46.114Z,101328.66
2022-11-30T15:49:23.011Z,101327.10
2022-11-30T15:52:09.565Z,101332.11
2022-11-30T15:54:48.250Z,101333.32
2022-11-30T15:57:17.016Z,101334.20
2022-11-30T16:00:01.989Z,101335.06
2022-11-30T16:02:37.363Z,101334.53
2022-11-30T16:05:15.676Z,101329.36
2022-11-30T16:07:55.260Z,101330.21
2022-11-30T16:10:39.429Z,101331.09
2022-11-30T16:13:07.327Z,101327.96
2022-11-30T16:15:39.165Z,101330.56
2022-11-30T16:18:19.851Z,101330.39
2022-11-30T16:20:53.103Z,101333.15
2022-11-30T16:23:21.886Z,101332.98
2022-11-30T16:25:50.349Z,101337.29
2022-11-30T16:28:19.816Z,101338.85
2022-11-30T16:30:47.990Z,101342.64
2022-11-30T16:33:18.887Z,101343.16
2022-11-30T16:36:13.161Z,101341.77
2022-11-30T16:38:41.494Z,101349.73
2022-11-30T16:41:19.066Z,101350.59
2022-11-30T16:43:49.716Z,101354.55
2022-11-30T16:46:20.970Z,101353.86
2022-11-30T16:48:49.457Z,101354.04
2022-11-30T16:56:11.850Z,101359.04
2022-11-30T16:58:59.148Z,101361.63
2022-11-30T17:01:36.255Z,101364.91
2022-11-30T17:04:17.514Z,101365.09
2022-11-30T17:06:50.244Z,101364.41
2022-11-30T17:09:20.843Z,101369.93
2022-11-30T17:11:51.181Z,101365.27
2022-11-30T17:14:22.413Z,101369.92
2022-11-30T17:16:50.546Z,101372.33
2022-11-30T17:19:18.376Z,101375.27
2022-11-30T17:21:46.519Z,101372.85
2022-11-30T17:24:15.822Z,101373.02
2022-11-30T17:26:45.222Z,101373.89
2022-11-30T17:29:12.950Z,101376.66
2022-11-30T17:31:41.001Z,101377.70
2022-11-30T17:34:08.904Z,101379.26
2022-11-30T17:36:36.690Z,101374.42
2022-11-30T17:39:07.085Z,101375.98
2022-11-30T17:41:35.442Z,101377.88
2022-11-30T17:44:03.421Z,101376.84
2022-11-30T17:46:32.433Z,101375.11
2022-11-30T17:49:00.285Z,101379.96
2022-11-30T17:51:28.550Z,101380.14
2022-11-30T17:53:57.372Z,101380.48
2022-11-30T17:56:26.137Z,101384.61
2022-11-30T17:58:53.929Z,101382.73
2022-11-30T18:01:27.476Z,101384.80
2022-11-30T18:03:56.038Z,101383.41
2022-11-30T18:06:24.425Z,101388.27
2022-11-30T18:08:52.734Z,101384.45
2022-11-30T18:11:23.799Z,101386.88
2022-11-30T18:13:54.848Z,101385.50
2022-11-30T18:16:25.155Z,101388.77
2022-11-30T18:18:53.579Z,101391.02
2022-11-30T18:21:23.192Z,101392.05
2022-11-30T18:23:52.486Z,101396.04
2022-11-30T18:26:22.902Z,101397.25
2022-11-30T18:29:00.735Z,101397.23
2022-11-30T18:31:30.246Z,101399.48
2022-11-30T18:34:04.675Z,101398.97
2022-11-30T18:36:33.937Z,101397.23
2022-11-30T18:39:01.720Z,101396.38
2022-11-30T18:41:30.649Z,101397.76
2022-11-30T18:43:58.693Z,101394.13
2022-11-30T18:46:26.838Z,101394.30
2022-11-30T18:48:56.968Z,101398.80
2022-11-30T18:51:27.901Z,101404.69
2022-11-30T18:53:58.790Z,101405.71
2022-11-30T18:56:28.975Z,101405.88
2022-11-30T18:59:01.694Z,101407.95
2022-11-30T19:01:30.972Z,101409.36
2022-11-30T19:04:06.094Z,101416.95
2022-11-30T19:06:36.154Z,101416.77
2022-11-30T19:09:12.500Z,101418.15
2022-11-30T19:11:43.017Z,101418.48
2022-11-30T19:14:14.875Z,101416.25
2022-11-30T19:16:47.824Z,101414.52
2022-11-30T19:19:17.620Z,101420.05
2022-11-30T19:21:48.197Z,101422.98
2022-11-30T19:24:17.852Z,101417.63
2022-11-30T19:26:47.360Z,101422.30
2022-11-30T19:29:16.756Z,101421.26
2022-11-30T19:31:46.119Z,101418.31
2022-11-30T19:34:15.281Z,101420.04
2022-11-30T19:36:44.634Z,101421.59
2022-11-30T19:39:13.774Z,101421.77
2022-11-30T19:41:43.148Z,101420.91
2022-11-30T19:44:14.930Z,101421.43
2022-11-30T19:46:44.264Z,101420.22
2022-11-30T19:49:13.271Z,101421.08
2022-11-30T19:51:42.458Z,101419.85
2022-11-30T19:54:11.560Z,101424.17
2022-11-30T19:56:43.000Z,101418.11
2022-11-30T19:59:12.269Z,101423.31
2022-11-30T20:01:41.551Z,101420.03
2022-11-30T20:04:10.697Z,101422.96
2022-11-30T20:06:41.499Z,101420.02
2022-11-30T20:09:11.898Z,101424.01
2022-11-30T20:11:40.366Z,101421.94
2022-11-30T20:14:08.258Z,101422.29
2022-11-30T20:16:36.461Z,101421.60
2022-11-30T20:19:04.454Z,101420.72
2022-11-30T20:21:35.153Z,101420.90
2022-11-30T20:24:07.007Z,101423.83
2022-11-30T20:26:40.059Z,101425.55
2022-11-30T20:29:12.067Z,101427.99
2022-11-30T20:31:41.882Z,101429.20
2022-11-30T20:34:10.823Z,101429.36
2022-11-30T20:36:38.838Z,101427.98
2022-11-30T20:39:07.567Z,101429.54
2022-11-30T20:41:35.608Z,101432.82
2022-11-30T20:44:06.328Z,101430.05
2022-11-30T20:46:35.911Z,101429.89
2022-11-30T20:49:17.872Z,101433.84
2022-11-30T20:51:47.137Z,101433.67
2022-11-30T20:54:16.525Z,101437.30
2022-11-30T20:56:48.868Z,101436.44
2022-11-30T20:59:22.323Z,101441.09
2022-11-30T21:01:50.557Z,101440.77
2022-11-30T21:04:18.461Z,101445.09
2022-11-30T21:06:47.686Z,101449.05
2022-11-30T21:09:17.235Z,101445.77
2022-11-30T21:11:46.016Z,101448.17
2022-11-30T21:14:14.518Z,101453.86
2022-11-30T21:16:43.641Z,101455.41
2022-11-30T21:19:13.400Z,101451.95
2022-11-30T21:21:41.811Z,101454.88
2022-11-30T21:24:11.669Z,101453.14
2022-11-30T21:26:41.792Z,101453.15
2022-11-30T21:29:12.666Z,101451.59
2022-11-30T21:31:42.418Z,101450.56
2022-11-30T21:34:12.277Z,101452.65
2022-11-30T21:36:40.015Z,101448.67
2022-11-30T21:39:12.367Z,101449.20
2022-11-30T21:41:40.979Z,101449.19
2022-11-30T21:44:14.763Z,101451.28
2022-11-30T21:46:46.590Z,101447.64
2022-11-30T21:49:16.514Z,101442.45
2022-11-30T21:51:46.419Z,101447.44
2022-11-30T21:54:15.497Z,101450.20
2022-11-30T21:56:44.808Z,101447.58
2022-11-30T21:59:14.005Z,101453.42
2022-11-30T22:01:44.809Z,101453.08
2022-11-30T22:04:14.115Z,101453.75
2022-11-30T22:06:43.160Z,101448.77
2022-11-30T22:09:14.779Z,101451.70
2022-11-30T22:11:45.074Z,101449.11
2022-11-30T22:14:18.421Z,101452.05
2022-11-30T22:16:46.426Z,101454.13
2022-11-30T22:19:15.751Z,101454.82
2022-11-30T22:21:49.787Z,101455.16
2022-11-30T22:24:18.645Z,101449.47
2022-11-30T22:26:49.161Z,101448.45
2022-11-30T22:29:23.265Z,101453.29
2022-11-30T22:31:53.430Z,101453.80
2022-11-30T22:34:21.780Z,101453.98
2022-11-30T22:36:49.612Z,101452.95
2022-11-30T22:39:23.944Z,101452.95
2022-11-30T22:41:55.622Z,101452.95
2022-11-30T22:44:24.760Z,101453.48
2022-11-30T22:46:52.886Z,101453.47
2022-11-30T22:49:22.208Z,101455.02
2022-11-30T22:51:53.279Z,101449.85
2022-11-30T22:54:21.032Z,101446.06
2022-11-30T22:56:49.089Z,101447.09
2022-11-30T22:59:17.166Z,101444.52
2022-11-30T23:01:50.169Z,101438.98
2022-11-30T23:04:22.987Z,101436.73
2022-11-30T23:06:51.143Z,101436.91
2022-11-30T23:09:22.049Z,101435.01
2022-11-30T23:11:51.283Z,101434.13
2022-11-30T23:14:19.464Z,101435.83
2022-11-30T23:16:47.996Z,101436.52
2022-11-30T23:19:16.054Z,101433.23
2022-11-30T23:21:46.895Z,101431.84
2022-11-30T23:24:20.370Z,101433.38
2022-11-30T23:26:48.912Z,101433.56
2022-11-30T23:29:17.612Z,101435.81
2022-11-30T23:31:46.082Z,101427.52
2022-11-30T23:34:21.403Z,101427.18
2022-11-30T23:36:50.161Z,101430.80
2022-11-30T23:39:19.928Z,101432.52
2022-11-30T23:41:47.930Z,101429.77
2022-11-30T23:44:16.256Z,101427.52
2022-11-30T23:46:44.445Z,101431.65
2022-11-30T23:49:13.896Z,101428.54
2022-11-30T23:51:43.506Z,101428.02
2022-11-30T23:54:11.247Z,101424.74
2022-11-30T23:56:38.956Z,101426.64
2022-11-30T23:59:07.527Z,101419.92
